createdAt,value
2023-12-30T00:00:01.378Z,954.06
2023-12-30T00:00:18.705Z,954.06
2023-12-30T00:00:24.432Z,954.08
2023-12-30T00:00:34.073Z,954.07
2023-12-30T00:00:45.090Z,954.08
2023-12-30T00:00:56.093Z,954.07
2023-12-30T00:01:06.857Z,954.08
2023-12-30T00:01:17.477Z,954.08
2023-12-30T00:01:28.022Z,954.09
2023-12-30T00:01:38.912Z,954.08
2023-12-30T00:01:49.496Z,954.07
2023-12-30T00:02:00.433Z,954.06
2023-12-30T00:02:11.209Z,954.07
2023-12-30T00:02:22.260Z,954.08
2023-12-30T00:02:33.232Z,954.09
2023-12-30T00:02:43.991Z,954.07
2023-12-30T00:02:55.049Z,954.07
2023-12-30T00:03:06.439Z,954.08
2023-12-30T00:03:16.739Z,954.10
2023-12-30T00:03:27.806Z,954.10
2023-12-30T00:03:38.761Z,954.09
2023-12-30T00:03:49.604Z,954.11
2023-12-30T00:04:00.215Z,954.12
2023-12-30T00:04:10.904Z,954.10
2023-12-30T00:04:21.679Z,954.09
2023-12-30T00:04:32.709Z,954.08
2023-12-30T00:04:43.736Z,954.09
2023-12-30T00:04:54.469Z,954.10
2023-12-30T00:05:05.528Z,954.11
2023-12-30T00:05:16.490Z,954.13
2023-12-30T00:05:27.369Z,954.09
2023-12-30T00:05:37.898Z,954.08
2023-12-30T00:05:48.928Z,954.06
2023-12-30T00:05:59.743Z,954.06
2023-12-30T00:06:10.343Z,954.05
2023-12-30T00:06:20.786Z,954.07
2023-12-30T00:06:31.540Z,954.09
2023-12-30T00:06:42.649Z,954.09
2023-12-30T00:06:53.590Z,954.08
2023-12-30T00:07:04.377Z,954.06
2023-12-30T00:07:15.415Z,954.09
2023-12-30T00:07:26.450Z,954.09
2023-12-30T00:07:37.219Z,954.11
2023-12-30T00:07:48.281Z,954.12
2023-12-30T00:07:59.240Z,954.12
2023-12-30T00:08:10.011Z,954.13
2023-12-30T00:08:21.072Z,954.12
2023-12-30T00:08:32.021Z,954.13
2023-12-30T00:08:42.805Z,954.14
2023-12-30T00:08:53.844Z,954.13
2023-12-30T00:09:04.814Z,954.13
2023-12-30T00:09:15.566Z,954.12
2023-12-30T00:09:26.612Z,954.13
2023-12-30T00:09:37.606Z,954.13
2023-12-30T00:09:48.365Z,954.13
2023-12-30T00:09:59.408Z,954.12
2023-12-30T00:10:10.393Z,954.14
2023-12-30T00:10:21.302Z,954.14
2023-12-30T00:10:31.992Z,954.12
2023-12-30T00:10:42.451Z,954.11
2023-12-30T00:10:53.218Z,954.10
2023-12-30T00:11:04.266Z,954.10
2023-12-30T00:11:15.238Z,954.10
2023-12-30T00:11:26.003Z,954.10
2023-12-30T00:11:37.047Z,954.09
2023-12-30T00:11:48.015Z,954.09
2023-12-30T00:11:58.790Z,954.08
2023-12-30T00:12:09.838Z,954.07
2023-12-30T00:12:20.812Z,954.07
2023-12-30T00:12:31.597Z,954.08
2023-12-30T00:12:42.658Z,954.06
2023-12-30T00:12:53.621Z,954.07
2023-12-30T00:13:04.807Z,954.09
2023-12-30T00:13:14.971Z,954.09
2023-12-30T00:13:25.917Z,954.10
2023-12-30T00:13:36.745Z,954.09
2023-12-30T00:13:47.769Z,954.10
2023-12-30T00:13:58.708Z,954.09
2023-12-30T00:14:09.477Z,954.09
2023-12-30T00:14:20.540Z,954.08
2023-12-30T00:14:31.503Z,954.07
2023-12-30T00:14:42.276Z,954.06
2023-12-30T00:14:53.330Z,954.05
2023-12-30T00:15:04.284Z,954.04
2023-12-30T00:15:15.057Z,954.04
2023-12-30T00:15:26.108Z,954.07
2023-12-30T00:15:37.066Z,954.06
2023-12-30T00:15:47.883Z,954.07
2023-12-30T00:15:58.445Z,954.07
2023-12-30T00:16:09.423Z,954.07
2023-12-30T00:16:20.585Z,954.08
2023-12-30T00:16:31.622Z,954.10
2023-12-30T00:16:42.587Z,954.10
2023-12-30T00:16:53.356Z,954.10
2023-12-30T00:17:04.398Z,954.11
2023-12-30T00:17:15.366Z,954.13
2023-12-30T00:17:26.245Z,954.13
2023-12-30T00:17:36.998Z,954.12
2023-12-30T00:17:47.517Z,954.12
2023-12-30T00:17:58.344Z,954.13
2023-12-30T00:18:08.937Z,954.13
2023-12-30T00:18:19.956Z,954.13
2023-12-30T00:18:30.770Z,954.12
2023-12-30T00:18:41.871Z,954.13
2023-12-30T00:18:52.954Z,954.13
2023-12-30T00:19:03.956Z,954.13
2023-12-30T00:19:14.573Z,954.12
2023-12-30T00:19:25.655Z,954.12
2023-12-30T00:19:36.611Z,954.14
2023-12-30T00:19:47.129Z,954.14
2023-12-30T00:19:58.141Z,954.15
2023-12-30T00:20:08.895Z,954.17
2023-12-30T00:20:19.916Z,954.17
2023-12-30T00:20:30.879Z,954.15
2023-12-30T00:20:41.656Z,954.15
2023-12-30T00:20:52.705Z,954.14
2023-12-30T00:21:03.670Z,954.13
2023-12-30T00:21:14.434Z,954.14
2023-12-30T00:21:25.487Z,954.12
2023-12-30T00:21:36.469Z,954.12
2023-12-30T00:21:47.332Z,954.14
2023-12-30T00:21:57.870Z,954.16
2023-12-30T00:22:08.821Z,954.11
2023-12-30T00:22:19.563Z,954.11
2023-12-30T00:22:30.671Z,954.12
2023-12-30T00:22:41.612Z,954.12
2023-12-30T00:22:52.377Z,954.13
2023-12-30T00:23:03.733Z,954.13
2023-12-30T00:23:14.402Z,954.14
2023-12-30T00:23:27.041Z,954.16
2023-12-30T00:23:42.893Z,954.15
2023-12-30T00:23:48.185Z,954.14
2023-12-30T00:23:57.782Z,954.13
2023-12-30T00:24:08.862Z,954.12
2023-12-30T00:24:19.785Z,954.12
2023-12-30T00:24:30.550Z,954.13
2023-12-30T00:24:41.619Z,954.12
2023-12-30T00:24:52.675Z,954.11
2023-12-30T00:25:03.447Z,954.12
2023-12-30T00:25:13.975Z,954.13
2023-12-30T00:25:25.046Z,954.11
2023-12-30T00:25:35.784Z,954.14
2023-12-30T00:25:46.806Z,954.14
2023-12-30T00:25:57.835Z,954.15
2023-12-30T00:26:08.602Z,954.14
2023-12-30T00:26:19.295Z,954.13
2023-12-30T00:26:30.259Z,954.14
2023-12-30T00:26:41.031Z,954.13
2023-12-30T00:26:52.075Z,954.13
2023-12-30T00:27:03.042Z,954.13
2023-12-30T00:27:13.822Z,954.13
2023-12-30T00:27:24.867Z,954.13
2023-12-30T00:27:35.822Z,954.12
2023-12-30T00:27:46.718Z,954.12
2023-12-30T00:27:57.292Z,954.12
2023-12-30T00:28:07.799Z,954.14
2023-12-30T00:28:18.560Z,954.13
2023-12-30T00:28:29.637Z,954.14
2023-12-30T00:28:40.568Z,954.15
2023-12-30T00:28:51.375Z,954.16
2023-12-30T00:29:02.399Z,954.14
2023-12-30T00:29:13.366Z,954.12
2023-12-30T00:29:24.132Z,954.09
2023-12-30T00:29:34.687Z,954.09
2023-12-30T00:29:45.653Z,954.10
2023-12-30T00:29:56.422Z,954.11
2023-12-30T00:30:07.478Z,954.11
2023-12-30T00:30:18.525Z,954.12
2023-12-30T00:30:29.320Z,954.12
2023-12-30T00:30:40.380Z,954.10
2023-12-30T00:30:51.470Z,954.07
2023-12-30T00:31:02.347Z,954.06
2023-12-30T00:31:12.851Z,954.10
2023-12-30T00:31:23.830Z,954.10
2023-12-30T00:31:34.698Z,954.11
2023-12-30T00:31:45.221Z,954.11
2023-12-30T00:31:55.900Z,954.10
2023-12-30T00:32:06.664Z,954.09
2023-12-30T00:32:17.720Z,954.09
2023-12-30T00:32:28.724Z,954.12
2023-12-30T00:32:39.528Z,954.14
2023-12-30T00:32:50.077Z,954.16
2023-12-30T00:33:01.209Z,954.13
2023-12-30T00:33:12.207Z,954.09
2023-12-30T00:33:22.787Z,954.10
2023-12-30T00:33:33.757Z,954.10
2023-12-30T00:33:44.557Z,954.12
2023-12-30T00:33:55.182Z,954.13
2023-12-30T00:34:05.711Z,954.15
2023-12-30T00:34:16.538Z,954.16
2023-12-30T00:34:27.125Z,954.16
2023-12-30T00:34:37.633Z,954.16
2023-12-30T00:34:48.395Z,954.16
2023-12-30T00:34:58.991Z,954.18
2023-12-30T00:35:09.918Z,954.18
2023-12-30T00:35:20.680Z,954.19
2023-12-30T00:35:31.722Z,954.19
2023-12-30T00:35:42.692Z,954.20
2023-12-30T00:35:53.462Z,954.19
2023-12-30T00:36:04.516Z,954.19
2023-12-30T00:36:15.487Z,954.19
2023-12-30T00:36:26.248Z,954.18
2023-12-30T00:36:37.286Z,954.16
2023-12-30T00:36:48.279Z,954.16
2023-12-30T00:36:59.055Z,954.17
2023-12-30T00:37:10.138Z,954.18
2023-12-30T00:37:20.787Z,954.18
2023-12-30T00:37:31.551Z,954.17
2023-12-30T00:37:42.574Z,954.18
2023-12-30T00:37:53.537Z,954.17
2023-12-30T00:38:04.298Z,954.17
2023-12-30T00:38:19.504Z,954.18
2023-12-30T00:38:27.550Z,954.19
2023-12-30T00:38:37.150Z,954.18
2023-12-30T00:38:48.207Z,954.19
2023-12-30T00:38:59.166Z,954.16
2023-12-30T00:39:09.947Z,954.17
2023-12-30T00:39:20.985Z,954.16
2023-12-30T00:39:31.964Z,954.16
2023-12-30T00:39:42.735Z,954.17
2023-12-30T00:39:53.804Z,954.17
2023-12-30T00:40:04.836Z,954.17
2023-12-30T00:40:21.213Z,954.18
2023-12-30T00:40:27.760Z,954.15
2023-12-30T00:40:37.642Z,954.18
2023-12-30T00:40:48.408Z,954.19
2023-12-30T00:40:59.437Z,954.17
2023-12-30T00:41:10.793Z,954.17
2023-12-30T00:41:21.585Z,954.18
2023-12-30T00:41:32.616Z,954.17
2023-12-30T00:41:43.594Z,954.15
2023-12-30T00:41:54.349Z,954.15
2023-12-30T00:42:05.405Z,954.15
2023-12-30T00:42:16.358Z,954.16
2023-12-30T00:42:27.194Z,954.15
2023-12-30T00:42:38.267Z,954.16
2023-12-30T00:42:49.267Z,954.15
2023-12-30T00:43:00.390Z,954.15
2023-12-30T00:43:10.631Z,954.15
2023-12-30T00:43:21.615Z,954.15
2023-12-30T00:43:32.405Z,954.17
2023-12-30T00:43:42.907Z,954.18
2023-12-30T00:43:53.894Z,954.18
2023-12-30T00:44:04.661Z,954.18
2023-12-30T00:44:15.692Z,954.17
2023-12-30T00:44:26.671Z,954.16
2023-12-30T00:44:37.418Z,954.16
2023-12-30T00:44:48.470Z,954.17
2023-12-30T00:44:59.432Z,954.15
2023-12-30T00:45:10.203Z,954.14
2023-12-30T00:45:20.893Z,954.15
2023-12-30T00:45:31.863Z,954.17
2023-12-30T00:45:42.694Z,954.16
2023-12-30T00:45:53.377Z,954.17
2023-12-30T00:46:04.409Z,954.16
2023-12-30T00:46:15.196Z,954.16
2023-12-30T00:46:26.262Z,954.17
2023-12-30T00:46:37.213Z,954.18
2023-12-30T00:46:47.980Z,954.19
2023-12-30T00:46:59.018Z,954.19
2023-12-30T00:47:09.980Z,954.17
2023-12-30T00:47:20.977Z,954.18
2023-12-30T00:47:32.068Z,954.17
2023-12-30T00:47:43.027Z,954.17
2023-12-30T00:47:53.768Z,954.18
2023-12-30T00:48:04.455Z,954.18
2023-12-30T00:48:14.912Z,954.18
2023-12-30T00:48:25.672Z,954.17
2023-12-30T00:48:36.709Z,954.17
2023-12-30T00:48:56.458Z,954.17
2023-12-30T00:48:59.727Z,954.15
2023-12-30T00:49:09.745Z,954.17
2023-12-30T00:49:20.764Z,954.16
2023-12-30T00:49:31.561Z,954.16
2023-12-30T00:49:42.699Z,954.16
2023-12-30T00:49:53.266Z,954.16
2023-12-30T00:50:04.040Z,954.16
2023-12-30T00:50:15.077Z,954.14
2023-12-30T00:50:26.054Z,954.16
2023-12-30T00:50:36.833Z,954.15
2023-12-30T00:50:47.876Z,954.13
2023-12-30T00:50:58.856Z,954.14
2023-12-30T00:51:09.624Z,954.13
2023-12-30T00:51:20.681Z,954.14
2023-12-30T00:51:31.648Z,954.15
2023-12-30T00:51:42.411Z,954.15
2023-12-30T00:51:53.476Z,954.16
2023-12-30T00:52:04.495Z,954.15
2023-12-30T00:52:15.265Z,954.13
2023-12-30T00:52:26.344Z,954.15
2023-12-30T00:52:37.433Z,954.13
2023-12-30T00:52:48.145Z,954.13
2023-12-30T00:52:59.663Z,954.11
2023-12-30T00:53:10.270Z,954.11
2023-12-30T00:53:21.249Z,954.11
2023-12-30T00:53:32.312Z,954.12
2023-12-30T00:53:43.284Z,954.11
2023-12-30T00:53:54.061Z,954.12
2023-12-30T00:54:05.106Z,954.13
2023-12-30T00:54:16.071Z,954.14
2023-12-30T00:54:31.891Z,954.15
2023-12-30T00:54:44.746Z,954.15
2023-12-30T00:54:51.415Z,954.16
2023-12-30T00:54:59.583Z,954.16
2023-12-30T00:55:10.628Z,954.14
2023-12-30T00:55:21.621Z,954.15
2023-12-30T00:55:32.491Z,954.16
2023-12-30T00:55:42.986Z,954.15
2023-12-30T00:55:53.946Z,954.13
2023-12-30T00:56:04.717Z,954.10
2023-12-30T00:56:15.775Z,954.13
2023-12-30T00:56:26.743Z,954.13
2023-12-30T00:56:37.520Z,954.12
2023-12-30T00:56:48.573Z,954.12
2023-12-30T00:56:59.548Z,954.12
2023-12-30T00:57:10.337Z,954.11
2023-12-30T00:57:21.377Z,954.12
2023-12-30T00:57:32.345Z,954.13
2023-12-30T00:57:43.123Z,954.12
2023-12-30T00:57:54.202Z,954.11
2023-12-30T00:58:05.221Z,954.13
2023-12-30T00:58:16.049Z,954.13
2023-12-30T00:58:26.647Z,954.12
2023-12-30T00:58:37.626Z,954.07
2023-12-30T00:58:48.412Z,954.09
2023-12-30T00:58:59.455Z,954.10
2023-12-30T00:59:10.429Z,954.09
2023-12-30T00:59:21.247Z,954.09
2023-12-30T00:59:32.244Z,954.11
2023-12-30T00:59:43.216Z,954.12
2023-12-30T00:59:53.986Z,954.11
2023-12-30T01:00:05.024Z,954.10
2023-12-30T01:00:15.997Z,954.10
2023-12-30T01:00:26.760Z,954.10
2023-12-30T01:00:37.895Z,954.09
2023-12-30T01:00:48.845Z,954.11
2023-12-30T01:00:59.699Z,954.12
2023-12-30T01:01:10.851Z,954.12
2023-12-30T01:01:21.340Z,954.13
2023-12-30T01:01:32.147Z,954.11
2023-12-30T01:01:42.753Z,954.10
2023-12-30T01:01:53.712Z,954.11
2023-12-30T01:02:04.482Z,954.10
2023-12-30T01:02:15.559Z,954.10
2023-12-30T01:02:26.512Z,954.10
2023-12-30T01:02:37.263Z,954.11
2023-12-30T01:02:48.344Z,954.12
2023-12-30T01:02:59.521Z,954.14
2023-12-30T01:03:10.452Z,954.12
2023-12-30T01:03:21.504Z,954.13
2023-12-30T01:03:32.463Z,954.14
2023-12-30T01:03:43.349Z,954.15
2023-12-30T01:03:53.982Z,954.10
2023-12-30T01:04:04.503Z,954.12
2023-12-30T01:04:15.386Z,954.11
2023-12-30T01:04:25.890Z,954.14
2023-12-30T01:04:36.911Z,954.14
2023-12-30T01:04:47.814Z,954.14
2023-12-30T01:04:58.510Z,954.16
2023-12-30T01:05:09.570Z,954.14
2023-12-30T01:05:20.374Z,954.14
2023-12-30T01:05:31.427Z,954.15
2023-12-30T01:05:42.385Z,954.15
2023-12-30T01:05:53.175Z,954.13
2023-12-30T01:06:04.174Z,954.13
2023-12-30T01:06:15.147Z,954.13
2023-12-30T01:06:25.908Z,954.14
2023-12-30T01:06:36.952Z,954.14
2023-12-30T01:06:47.921Z,954.15
2023-12-30T01:06:58.725Z,954.12
2023-12-30T01:07:09.866Z,954.13
2023-12-30T01:07:20.478Z,954.13
2023-12-30T01:07:31.261Z,954.12
2023-12-30T01:07:42.284Z,954.13
2023-12-30T01:07:53.243Z,954.14
2023-12-30T01:08:04.026Z,954.13
2023-12-30T01:08:15.090Z,954.12
2023-12-30T01:08:26.131Z,954.13
2023-12-30T01:08:36.934Z,954.13
2023-12-30T01:08:47.406Z,954.12
2023-12-30T01:08:58.390Z,954.14
2023-12-30T01:09:09.149Z,954.14
2023-12-30T01:09:20.207Z,954.14
2023-12-30T01:09:31.165Z,954.15
2023-12-30T01:09:41.939Z,954.14
2023-12-30T01:09:53.036Z,954.14
2023-12-30T01:10:04.021Z,954.15
2023-12-30T01:10:14.842Z,954.15
2023-12-30T01:10:25.404Z,954.15
2023-12-30T01:10:36.375Z,954.14
2023-12-30T01:10:47.126Z,954.12
2023-12-30T01:10:58.187Z,954.13
2023-12-30T01:11:09.162Z,954.15
2023-12-30T01:11:19.915Z,954.17
2023-12-30T01:11:31.009Z,954.15
2023-12-30T01:11:41.932Z,954.15
2023-12-30T01:11:52.709Z,954.15
2023-12-30T01:12:03.741Z,954.15
2023-12-30T01:12:14.707Z,954.14
2023-12-30T01:12:25.482Z,954.14
2023-12-30T01:12:36.530Z,954.15
2023-12-30T01:12:47.538Z,954.14
2023-12-30T01:12:58.349Z,954.14
2023-12-30T01:13:08.874Z,954.14
2023-12-30T01:13:19.847Z,954.14
2023-12-30T01:13:30.651Z,954.14
2023-12-30T01:13:41.694Z,954.15
2023-12-30T01:13:52.619Z,954.16
2023-12-30T01:14:03.399Z,954.16
2023-12-30T01:14:14.459Z,954.15
2023-12-30T01:14:25.412Z,954.14
2023-12-30T01:14:36.187Z,954.15
2023-12-30T01:14:47.240Z,954.14
2023-12-30T01:14:58.199Z,954.15
2023-12-30T01:15:08.980Z,954.17
2023-12-30T01:15:20.042Z,954.18
2023-12-30T01:15:31.009Z,954.17
2023-12-30T01:15:41.784Z,954.18
2023-12-30T01:15:52.851Z,954.19
2023-12-30T01:16:03.863Z,954.19
2023-12-30T01:16:14.635Z,954.19
2023-12-30T01:16:25.717Z,954.18
2023-12-30T01:16:36.733Z,954.17
2023-12-30T01:16:47.446Z,954.17
2023-12-30T01:16:58.051Z,954.18
2023-12-30T01:17:09.015Z,954.19
2023-12-30T01:17:19.803Z,954.19
2023-12-30T01:17:31.340Z,954.17
2023-12-30T01:17:41.795Z,954.18
2023-12-30T01:17:52.676Z,954.17
2023-12-30T01:18:03.326Z,954.16
2023-12-30T01:18:13.795Z,954.16
2023-12-30T01:18:24.648Z,954.16
2023-12-30T01:18:35.304Z,954.17
2023-12-30T01:18:45.779Z,954.16
2023-12-30T01:18:56.694Z,954.18
2023-12-30T01:19:07.232Z,954.19
2023-12-30T01:19:18.287Z,954.18
2023-12-30T01:19:29.155Z,954.17
2023-12-30T01:19:39.714Z,954.15
2023-12-30T01:19:50.704Z,954.16
2023-12-30T01:20:01.445Z,954.16
2023-12-30T01:20:12.665Z,954.16
2023-12-30T01:20:23.073Z,954.16
2023-12-30T01:20:33.884Z,954.15
2023-12-30T01:20:44.908Z,954.16
2023-12-30T01:20:55.888Z,954.16
2023-12-30T01:21:06.648Z,954.17
2023-12-30T01:21:17.724Z,954.15
2023-12-30T01:21:28.668Z,954.16
2023-12-30T01:21:39.427Z,954.17
2023-12-30T01:21:50.485Z,954.19
2023-12-30T01:22:01.503Z,954.19
2023-12-30T01:22:12.358Z,954.19
2023-12-30T01:22:22.859Z,954.20
2023-12-30T01:22:33.861Z,954.19
2023-12-30T01:22:44.597Z,954.19
2023-12-30T01:22:55.199Z,954.19
2023-12-30T01:23:06.166Z,954.20
2023-12-30T01:23:16.948Z,954.18
2023-12-30T01:23:27.997Z,954.19
2023-12-30T01:23:38.959Z,954.20
2023-12-30T01:23:49.721Z,954.19
2023-12-30T01:24:00.776Z,954.17
2023-12-30T01:24:11.786Z,954.16
2023-12-30T01:24:22.520Z,954.16
2023-12-30T01:24:33.573Z,954.15
2023-12-30T01:24:44.546Z,954.16
2023-12-30T01:24:55.468Z,954.17
2023-12-30T01:25:06.524Z,954.18
2023-12-30T01:25:17.597Z,954.17
2023-12-30T01:25:28.414Z,954.15
2023-12-30T01:25:38.911Z,954.15
2023-12-30T01:25:49.951Z,954.16
2023-12-30T01:26:00.681Z,954.19
2023-12-30T01:26:11.722Z,954.16
2023-12-30T01:26:22.694Z,954.15
2023-12-30T01:26:33.458Z,954.16
2023-12-30T01:26:44.512Z,954.14
2023-12-30T01:26:55.059Z,954.14
2023-12-30T01:27:05.829Z,954.14
2023-12-30T01:27:16.885Z,954.14
2023-12-30T01:27:27.838Z,954.15
2023-12-30T01:27:38.610Z,954.17
2023-12-30T01:27:49.684Z,954.19
2023-12-30T01:28:00.665Z,954.19
2023-12-30T01:28:11.431Z,954.19
2023-12-30T01:28:22.514Z,954.18
2023-12-30T01:28:33.525Z,954.19
2023-12-30T01:28:44.401Z,954.21
2023-12-30T01:28:54.896Z,954.20
2023-12-30T01:29:05.864Z,954.22
2023-12-30T01:29:16.638Z,954.22
2023-12-30T01:29:27.687Z,954.21
2023-12-30T01:29:38.656Z,954.23
2023-12-30T01:29:49.413Z,954.26
2023-12-30T01:30:00.478Z,954.26
2023-12-30T01:30:11.464Z,954.26
2023-12-30T01:30:22.301Z,954.23
2023-12-30T01:30:32.852Z,954.21
2023-12-30T01:30:43.809Z,954.24
2023-12-30T01:30:54.628Z,954.26
2023-12-30T01:31:05.274Z,954.24
2023-12-30T01:31:15.828Z,954.25
2023-12-30T01:31:26.712Z,954.25
2023-12-30T01:31:37.232Z,954.25
2023-12-30T01:31:48.240Z,954.25
2023-12-30T01:31:59.111Z,954.26
2023-12-30T01:32:09.589Z,954.28
2023-12-30T01:32:20.555Z,954.29
2023-12-30T01:32:31.347Z,954.28
2023-12-30T01:32:42.469Z,954.29
2023-12-30T01:32:53.027Z,954.29
2023-12-30T01:33:03.954Z,954.30
2023-12-30T01:33:14.609Z,954.32
2023-12-30T01:33:25.624Z,954.31
2023-12-30T01:33:36.545Z,954.33
2023-12-30T01:33:47.245Z,954.35
2023-12-30T01:33:57.857Z,954.36
2023-12-30T01:34:08.743Z,954.37
2023-12-30T01:34:19.374Z,954.37
2023-12-30T01:34:29.921Z,954.34
2023-12-30T01:34:40.769Z,954.31
2023-12-30T01:34:51.283Z,954.30
2023-12-30T01:35:01.821Z,954.32
2023-12-30T01:35:12.561Z,954.34
2023-12-30T01:35:23.596Z,954.38
2023-12-30T01:35:34.569Z,954.35
2023-12-30T01:35:45.330Z,954.34
2023-12-30T01:35:55.880Z,954.37
2023-12-30T01:36:06.869Z,954.35
2023-12-30T01:36:17.636Z,954.34
2023-12-30T01:36:28.682Z,954.35
2023-12-30T01:36:39.650Z,954.38
2023-12-30T01:36:50.458Z,954.37
2023-12-30T01:37:01.528Z,954.35
2023-12-30T01:37:12.617Z,954.36
2023-12-30T01:37:23.413Z,954.37
2023-12-30T01:37:34.454Z,954.37
2023-12-30T01:37:45.401Z,954.38
2023-12-30T01:37:56.526Z,954.37
2023-12-30T01:38:07.585Z,954.37
2023-12-30T01:38:18.550Z,954.37
2023-12-30T01:38:29.326Z,954.38
2023-12-30T01:38:40.360Z,954.37
2023-12-30T01:38:51.344Z,954.37
2023-12-30T01:39:02.110Z,954.38
2023-12-30T01:39:13.186Z,954.42
2023-12-30T01:39:24.157Z,954.43
2023-12-30T01:39:34.948Z,954.44
2023-12-30T01:39:46.011Z,954.43
2023-12-30T01:39:56.965Z,954.41
2023-12-30T01:40:07.741Z,954.42
2023-12-30T01:40:18.743Z,954.45
2023-12-30T01:40:29.826Z,954.45
2023-12-30T01:40:40.653Z,954.47
2023-12-30T01:40:51.713Z,954.49
2023-12-30T01:41:02.662Z,954.48
2023-12-30T01:41:13.437Z,954.48
2023-12-30T01:41:24.478Z,954.50
2023-12-30T01:41:35.510Z,954.50
2023-12-30T01:41:46.235Z,954.53
2023-12-30T01:41:57.288Z,954.53
2023-12-30T01:42:08.244Z,954.51
2023-12-30T01:42:19.407Z,954.52
2023-12-30T01:42:30.440Z,954.53
2023-12-30T01:42:41.398Z,954.54
2023-12-30T01:42:52.168Z,954.52
2023-12-30T01:43:03.590Z,954.52
2023-12-30T01:43:14.215Z,954.49
2023-12-30T01:43:24.993Z,954.48
2023-12-30T01:43:38.179Z,954.49
2023-12-30T01:43:46.816Z,954.49
2023-12-30T01:43:57.552Z,954.49
2023-12-30T01:44:08.109Z,954.48
2023-12-30T01:44:19.088Z,954.47
2023-12-30T01:44:29.855Z,954.46
2023-12-30T01:44:40.906Z,954.49
2023-12-30T01:44:51.876Z,954.53
2023-12-30T01:45:02.635Z,954.56
2023-12-30T01:45:13.680Z,954.55
2023-12-30T01:45:24.645Z,954.55
2023-12-30T01:45:35.415Z,954.54
2023-12-30T01:45:46.459Z,954.53
2023-12-30T01:45:57.256Z,954.53
2023-12-30T01:46:08.063Z,954.54
2023-12-30T01:46:18.743Z,954.55
2023-12-30T01:46:29.750Z,954.54
2023-12-30T01:46:40.470Z,954.53
2023-12-30T01:46:51.520Z,954.56
2023-12-30T01:47:02.535Z,954.60
2023-12-30T01:47:13.362Z,954.56
2023-12-30T01:47:24.514Z,954.53
2023-12-30T01:47:35.075Z,954.50
2023-12-30T01:47:45.952Z,954.51
2023-12-30T01:47:56.547Z,954.53
2023-12-30T01:48:07.581Z,954.55
2023-12-30T01:48:18.488Z,954.55
2023-12-30T01:48:29.133Z,954.57
2023-12-30T01:48:40.233Z,954.58
2023-12-30T01:48:51.211Z,954.58
2023-12-30T01:49:01.856Z,954.60
2023-12-30T01:49:12.417Z,954.60
2023-12-30T01:49:23.170Z,954.59
2023-12-30T01:49:34.242Z,954.58
2023-12-30T01:49:45.291Z,954.57
2023-12-30T01:49:56.049Z,954.59
2023-12-30T01:50:07.086Z,954.57
2023-12-30T01:50:18.081Z,954.59
2023-12-30T01:50:28.847Z,954.59
2023-12-30T01:50:39.905Z,954.60
2023-12-30T01:50:50.877Z,954.61
2023-12-30T01:51:01.627Z,954.59
2023-12-30T01:51:24.263Z,954.57
2023-12-30T01:51:26.578Z,954.57
2023-12-30T01:51:34.693Z,954.57
2023-12-30T01:51:45.736Z,954.57
2023-12-30T01:51:56.732Z,954.58
2023-12-30T01:52:07.555Z,954.59
2023-12-30T01:52:18.081Z,954.58
2023-12-30T01:52:29.132Z,954.60
2023-12-30T01:52:39.900Z,954.58
2023-12-30T01:52:50.964Z,954.59
2023-12-30T01:53:02.215Z,954.60
2023-12-30T01:53:12.657Z,954.59
2023-12-30T01:53:23.163Z,954.54
2023-12-30T01:53:34.174Z,954.55
2023-12-30T01:53:44.942Z,954.56
2023-12-30T01:53:55.498Z,954.57
2023-12-30T01:54:06.467Z,954.59
2023-12-30T01:54:17.252Z,954.62
2023-12-30T01:54:28.296Z,954.64
2023-12-30T01:54:39.276Z,954.63
2023-12-30T01:54:50.075Z,954.65
2023-12-30T01:55:01.114Z,954.61
2023-12-30T01:55:12.057Z,954.59
2023-12-30T01:55:22.863Z,954.61
2023-12-30T01:55:33.950Z,954.63
2023-12-30T01:55:44.925Z,954.64
2023-12-30T01:55:55.842Z,954.64
2023-12-30T01:56:06.902Z,954.62
2023-12-30T01:56:17.854Z,954.63
2023-12-30T01:56:28.653Z,954.61
2023-12-30T01:56:39.689Z,954.61
2023-12-30T01:56:50.656Z,954.63
2023-12-30T01:57:01.419Z,954.63
2023-12-30T01:57:12.470Z,954.61
2023-12-30T01:57:23.431Z,954.58
2023-12-30T01:57:34.210Z,954.61
2023-12-30T01:57:45.339Z,954.64
2023-12-30T01:57:56.290Z,954.65
2023-12-30T01:58:07.077Z,954.68
2023-12-30T01:58:18.156Z,954.70
2023-12-30T01:58:29.134Z,954.71
2023-12-30T01:58:39.863Z,954.70
2023-12-30T01:58:50.909Z,954.67
2023-12-30T01:59:01.948Z,954.67
2023-12-30T01:59:12.695Z,954.69
2023-12-30T01:59:23.732Z,954.69
2023-12-30T01:59:34.697Z,954.68
2023-12-30T01:59:45.811Z,954.65
2023-12-30T01:59:56.355Z,954.65
2023-12-30T02:00:07.295Z,954.63
2023-12-30T02:00:18.048Z,954.62
2023-12-30T02:00:29.093Z,954.63
2023-12-30T02:00:40.081Z,954.67
2023-12-30T02:00:50.914Z,954.69
2023-12-30T02:01:01.535Z,954.68
2023-12-30T02:01:12.046Z,954.66
2023-12-30T02:01:22.903Z,954.65
2023-12-30T02:01:33.572Z,954.62
2023-12-30T02:01:44.032Z,954.65
2023-12-30T02:01:54.877Z,954.64
2023-12-30T02:02:05.603Z,954.64
2023-12-30T02:02:16.143Z,954.67
2023-12-30T02:02:26.891Z,954.66
2023-12-30T02:02:37.919Z,954.68
2023-12-30T02:02:49.016Z,954.68
2023-12-30T02:03:00.033Z,954.71
2023-12-30T02:03:10.750Z,954.71
2023-12-30T02:03:32.415Z,954.68
2023-12-30T02:03:43.472Z,954.68
2023-12-30T02:03:54.523Z,954.67
2023-12-30T02:04:05.367Z,954.68
2023-12-30T02:04:16.402Z,954.68
2023-12-30T02:04:27.344Z,954.68
2023-12-30T02:04:38.191Z,954.70
2023-12-30T02:04:48.814Z,954.68
2023-12-30T02:04:59.784Z,954.68
2023-12-30T02:05:10.571Z,954.69
2023-12-30T02:05:21.104Z,954.69
2023-12-30T02:05:32.149Z,954.67
2023-12-30T02:05:42.933Z,954.68
2023-12-30T02:05:53.528Z,954.67
2023-12-30T02:06:04.535Z,954.66
2023-12-30T02:06:15.264Z,954.67
2023-12-30T02:06:26.313Z,954.67
2023-12-30T02:06:37.277Z,954.66
2023-12-30T02:06:48.148Z,954.66
2023-12-30T02:06:58.732Z,954.66
2023-12-30T02:07:09.695Z,954.68
2023-12-30T02:07:20.262Z,954.69
2023-12-30T02:07:31.342Z,954.69
2023-12-30T02:07:42.351Z,954.69
2023-12-30T02:07:53.068Z,954.67
2023-12-30T02:08:04.114Z,954.65
2023-12-30T02:08:15.081Z,954.65
2023-12-30T02:08:25.862Z,954.67
2023-12-30T02:08:36.897Z,954.65
2023-12-30T02:08:48.019Z,954.63
2023-12-30T02:08:58.753Z,954.64
2023-12-30T02:09:09.805Z,954.65
2023-12-30T02:09:20.771Z,954.64
2023-12-30T02:09:31.564Z,954.63
2023-12-30T02:09:42.589Z,954.64
2023-12-30T02:09:53.593Z,954.64
2023-12-30T02:10:04.384Z,954.66
2023-12-30T02:10:15.083Z,954.65
2023-12-30T02:10:25.565Z,954.64
2023-12-30T02:10:36.343Z,954.66
2023-12-30T02:10:47.391Z,954.67
2023-12-30T02:10:58.323Z,954.68
2023-12-30T02:11:09.105Z,954.68
2023-12-30T02:11:20.144Z,954.66
2023-12-30T02:11:31.110Z,954.66
2023-12-30T02:11:41.927Z,954.68
2023-12-30T02:11:52.934Z,954.66
2023-12-30T02:12:03.902Z,954.65
2023-12-30T02:12:14.673Z,954.65
2023-12-30T02:12:25.723Z,954.64
2023-12-30T02:12:36.682Z,954.63
2023-12-30T02:12:47.549Z,954.65
2023-12-30T02:12:58.215Z,954.64
2023-12-30T02:13:09.238Z,954.62
2023-12-30T02:13:20.026Z,954.63
2023-12-30T02:13:31.111Z,954.64
2023-12-30T02:13:42.034Z,954.63
2023-12-30T02:13:52.796Z,954.64
2023-12-30T02:14:03.864Z,954.64
2023-12-30T02:14:14.822Z,954.62
2023-12-30T02:14:25.604Z,954.60
2023-12-30T02:14:36.697Z,954.60
2023-12-30T02:14:47.618Z,954.61
2023-12-30T02:14:58.525Z,954.60
2023-12-30T02:15:08.958Z,954.62
2023-12-30T02:15:19.936Z,954.64
2023-12-30T02:15:30.712Z,954.65
2023-12-30T02:15:41.738Z,954.65
2023-12-30T02:15:52.715Z,954.67